Portada
METAR-TAF:

METAR-TAF

Aeroports :

Knoxville Municipal Airport

Knoxville, Iowa, Estats Units d'Amèrica

latitud: 41-18N, longitud: 093-07W, altitud: 283 m

Observació

L'informe es va fer fa 34 minuts, a les 20:35 UTC
Vent 12 kt del Sud amb ràfegues de 20 kt
Temperatura 32°C
Humitat 49%
Pressió 1008 hPa
Visibilitat: 16.1 km
Escasses núvols a una alçada de 5500 ft

METAR: KOXV 172035Z AUTO 17012G20KT 10SM FEW055 32/20 A2977 RMK AO2

Hora: 16:09 (21:09 UTC)


TAF: manca

Observacions i pronòstics meteorològics de més de 4000 aeroports (METAR i TAF).

Les estacions disponibles són els punts grocs i vermells al mapa.

Posi el ratolí al punt desitjat per veure el nom de l'estació.

Feu clic per veure les observacions i els pronòstics meteorològics.

Per canviar el mapa: feu clic els botons verds amb una creu de color negre per apropar; al botó verd amb un guió per allunyar la imatge; o en les fletxes verdes per a mapes adjacents.


METAR-TAF: